Terminal Aerodrome Forecast
Issued by NWS Cleveland, OH

Home | Current Version | Previous Version | Text Only | Print | Product List | Glossary Off
Versions: 1 2 3 4 5 6 7 8 9 10 11 12 13 14 15

000
FTUS41 KCLE 211731
TAFYNG
TAF
KYNG 211731Z 2118/2218 29012G20KT P6SM SCT030 BKN045
     FM220000 29010KT P6SM SCT030 BKN035
      TEMPO 2201/2204 -SHRA BKN025 OVC035
     FM220400 28008KT P6SM VCSH BKN025 OVC035
     FM221500 30008KT P6SM BKN035=

USA.gov is the U.S. government's official web portal to all federal, state and local government web resources and services.